createdAt,value
2023-02-27T00:00:14.339Z,2.60
2023-02-27T00:03:01.092Z,2.39
2023-02-27T00:05:27.724Z,2.23
2023-02-27T00:07:54.370Z,2.42
2023-02-27T00:10:21.564Z,4.06
2023-02-27T00:12:48.347Z,4.57
2023-02-27T00:15:19.569Z,3.83
2023-02-27T00:17:46.229Z,3.27
2023-02-27T00:20:15.810Z,2.87
2023-02-27T00:22:43.007Z,2.58
2023-02-27T00:25:11.174Z,2.35
2023-02-27T00:27:38.162Z,2.15
2023-02-27T00:30:06.673Z,2.11
2023-02-27T00:32:35.836Z,3.56
2023-02-27T00:35:07.989Z,5.38
2023-02-27T00:37:34.764Z,5.54
2023-02-27T00:40:01.972Z,4.55
2023-02-27T00:42:30.229Z,3.80
2023-02-27T00:44:56.943Z,3.29
2023-02-27T00:47:23.568Z,2.92
2023-02-27T00:49:50.122Z,2.64
2023-02-27T00:52:16.687Z,2.39
2023-02-27T00:54:43.249Z,2.17
2023-02-27T00:57:09.889Z,1.98
2023-02-27T00:59:36.575Z,2.27
2023-02-27T01:02:03.182Z,4.15
2023-02-27T01:04:30.102Z,5.31
2023-02-27T01:06:56.552Z,4.51
2023-02-27T01:09:24.405Z,3.68
2023-02-27T01:11:51.833Z,3.10
2023-02-27T01:14:18.667Z,2.71
2023-02-27T01:16:45.466Z,2.41
2023-02-27T01:19:12.194Z,2.15
2023-02-27T01:21:41.381Z,1.93
2023-02-27T01:24:09.568Z,1.72
2023-02-27T01:26:36.564Z,2.00
2023-02-27T01:29:06.242Z,3.79
2023-02-27T01:31:33.995Z,5.44
2023-02-27T01:34:00.621Z,5.17
2023-02-27T01:36:27.154Z,4.17
2023-02-27T01:38:53.693Z,3.44
2023-02-27T01:41:20.556Z,2.91
2023-02-27T01:44:00.156Z,2.55
2023-02-27T01:46:28.837Z,2.22
2023-02-27T01:49:03.361Z,1.97
2023-02-27T01:51:36.273Z,2.20
2023-02-27T01:54:04.052Z,4.06
2023-02-27T01:56:31.693Z,5.57
2023-02-27T01:59:04.206Z,5.02
2023-02-27T02:01:33.176Z,3.99
2023-02-27T02:04:22.729Z,3.30
2023-02-27T02:06:59.274Z,2.77
2023-02-27T02:09:27.562Z,2.40
2023-02-27T02:11:54.945Z,2.11
2023-02-27T02:14:21.438Z,2.29
2023-02-27T02:17:31.682Z,4.05
2023-02-27T02:20:09.937Z,5.22
2023-02-27T02:23:21.151Z,4.15
2023-02-27T02:26:33.422Z,3.18
2023-02-27T02:29:41.338Z,2.54
2023-02-27T02:32:32.502Z,2.12
2023-02-27T02:35:20.585Z,2.43
2023-02-27T02:38:19.398Z,4.37
2023-02-27T02:41:36.701Z,4.85
2023-02-27T02:44:42.983Z,3.65
2023-02-27T02:47:43.364Z,2.87
2023-02-27T02:50:29.789Z,2.40
2023-02-27T02:54:05.487Z,2.07
2023-02-27T02:56:52.637Z,3.01
2023-02-27T02:59:45.429Z,5.03
2023-02-27T03:02:17.786Z,5.09
2023-02-27T03:04:55.723Z,4.08
2023-02-27T03:07:42.952Z,3.31
2023-02-27T03:10:17.876Z,2.77
2023-02-27T03:12:54.407Z,2.41
2023-02-27T03:15:25.600Z,2.64
2023-02-27T03:17:59.906Z,4.46
2023-02-27T03:20:42.191Z,5.62
2023-02-27T03:23:13.429Z,4.70
2023-02-27T03:25:40.680Z,3.80
2023-02-27T03:28:10.989Z,3.19
2023-02-27T03:30:51.370Z,2.75
2023-02-27T03:33:23.668Z,2.39
2023-02-27T03:36:38.402Z,2.67
2023-02-27T03:39:23.414Z,5.02
2023-02-27T03:42:15.214Z,5.85
2023-02-27T03:45:14.864Z,4.62
2023-02-27T03:47:41.441Z,3.63
2023-02-27T03:50:08.902Z,3.08
2023-02-27T03:52:35.520Z,2.67
2023-02-27T03:55:19.178Z,2.34
2023-02-27T03:57:48.448Z,2.63
2023-02-27T04:00:21.587Z,4.47
2023-02-27T04:02:50.882Z,5.61
2023-02-27T04:05:19.390Z,4.71
2023-02-27T04:08:20.469Z,3.79
2023-02-27T04:11:00.611Z,3.05
2023-02-27T04:13:57.999Z,2.61
2023-02-27T04:16:36.628Z,3.09
2023-02-27T04:19:38.438Z,5.09
2023-02-27T04:22:31.988Z,5.81
2023-02-27T04:25:34.775Z,4.58
2023-02-27T04:28:32.092Z,3.65
2023-02-27T04:31:13.876Z,3.07
2023-02-27T04:33:55.677Z,2.73
2023-02-27T04:37:06.859Z,3.81
2023-02-27T04:40:15.171Z,5.82
2023-02-27T04:42:47.485Z,4.93
2023-02-27T04:45:18.191Z,4.03
2023-02-27T04:47:56.652Z,3.44
2023-02-27T04:50:55.569Z,2.98
2023-02-27T04:53:32.003Z,3.39
2023-02-27T04:56:11.621Z,5.33
2023-02-27T04:58:44.715Z,6.17
2023-02-27T05:01:16.469Z,5.13
2023-02-27T05:03:47.634Z,4.22
2023-02-27T05:06:17.223Z,3.60
2023-02-27T05:09:08.154Z,3.16
2023-02-27T05:11:47.124Z,2.77
2023-02-27T05:14:31.279Z,2.98
2023-02-27T05:17:09.112Z,4.93
2023-02-27T05:19:40.551Z,6.23
2023-02-27T05:22:23.064Z,5.40
2023-02-27T05:25:13.127Z,4.36
2023-02-27T05:27:50.158Z,3.64
2023-02-27T05:30:49.069Z,3.17
2023-02-27T05:33:21.892Z,3.57
2023-02-27T05:35:50.299Z,5.45
2023-02-27T05:38:25.385Z,6.70
2023-02-27T05:40:57.603Z,5.92
2023-02-27T05:43:29.059Z,4.86
2023-02-27T05:46:04.816Z,4.14
2023-02-27T05:48:40.677Z,3.70
2023-02-27T05:51:08.441Z,4.55
2023-02-27T05:53:40.522Z,6.37
2023-02-27T05:56:08.055Z,7.20
2023-02-27T05:58:41.516Z,6.17
2023-02-27T06:01:10.741Z,5.20
2023-02-27T06:03:39.702Z,4.58
2023-02-27T06:06:11.274Z,4.12
2023-02-27T06:08:38.126Z,3.75
2023-02-27T06:11:05.371Z,4.00
2023-02-27T06:13:32.041Z,5.75
2023-02-27T06:15:58.599Z,6.90
2023-02-27T06:18:25.168Z,6.08
2023-02-27T06:20:51.728Z,5.13
2023-02-27T06:23:18.322Z,4.48
2023-02-27T06:25:45.342Z,4.00
2023-02-27T06:28:11.825Z,3.63
2023-02-27T06:30:38.428Z,3.89
2023-02-27T06:33:05.239Z,5.61
2023-02-27T06:35:32.042Z,6.73
2023-02-27T06:37:58.865Z,5.92
2023-02-27T06:40:25.730Z,4.99
2023-02-27T06:42:52.257Z,4.33
2023-02-27T06:45:18.824Z,3.90
2023-02-27T06:47:45.367Z,3.94
2023-02-27T06:50:13.211Z,5.61
2023-02-27T06:52:40.101Z,6.74
2023-02-27T06:55:08.802Z,5.96
2023-02-27T06:57:35.583Z,5.07
2023-02-27T07:00:06.432Z,4.44
2023-02-27T07:02:32.922Z,4.01
2023-02-27T07:04:59.530Z,4.12
2023-02-27T07:07:33.143Z,5.79
2023-02-27T07:10:05.918Z,6.92
2023-02-27T07:12:32.454Z,6.07
2023-02-27T07:14:59.447Z,5.20
2023-02-27T07:17:25.987Z,4.61
2023-02-27T07:19:52.559Z,4.20
2023-02-27T07:22:19.039Z,3.89
2023-02-27T07:24:45.561Z,4.62
2023-02-27T07:27:12.005Z,6.48
2023-02-27T07:29:38.499Z,7.27
2023-02-27T07:32:05.085Z,6.33
2023-02-27T07:34:31.675Z,5.48
2023-02-27T07:36:58.222Z,4.91
2023-02-27T07:39:25.100Z,4.51
2023-02-27T07:41:51.632Z,4.20
2023-02-27T07:44:18.284Z,4.35
2023-02-27T07:46:46.620Z,6.07
2023-02-27T07:49:13.276Z,7.23
2023-02-27T07:51:40.267Z,6.49
2023-02-27T07:54:06.950Z,5.67
2023-02-27T07:56:33.810Z,5.11
2023-02-27T07:59:00.326Z,4.72
2023-02-27T08:01:26.915Z,4.44
2023-02-27T08:03:53.444Z,4.25
2023-02-27T08:06:20.143Z,5.23
2023-02-27T08:08:46.701Z,7.03
2023-02-27T08:11:13.251Z,6.96
2023-02-27T08:13:59.575Z,6.11
2023-02-27T08:16:26.738Z,5.42
2023-02-27T08:18:53.686Z,5.02
2023-02-27T08:21:20.313Z,4.74
2023-02-27T08:23:46.885Z,4.52
2023-02-27T08:26:13.659Z,4.35
2023-02-27T08:28:40.394Z,4.64
2023-02-27T08:31:07.052Z,6.53
2023-02-27T08:33:34.426Z,7.83
2023-02-27T08:36:01.071Z,7.11
2023-02-27T08:38:27.572Z,6.35
2023-02-27T08:40:54.060Z,5.84
2023-02-27T08:43:22.200Z,5.50
2023-02-27T08:45:49.792Z,5.26
2023-02-27T08:48:17.779Z,5.09
2023-02-27T08:50:45.632Z,4.95
2023-02-27T08:53:12.529Z,4.83
2023-02-27T08:55:39.071Z,4.72
2023-02-27T08:58:05.678Z,4.92
2023-02-27T09:00:32.294Z,6.71
2023-02-27T09:03:00.604Z,8.00
2023-02-27T09:05:28.371Z,7.33
2023-02-27T09:07:54.921Z,6.63
2023-02-27T09:10:22.127Z,6.18
2023-02-27T09:12:48.800Z,5.89
2023-02-27T09:15:15.842Z,5.68
2023-02-27T09:17:42.622Z,5.54
2023-02-27T09:20:10.809Z,5.41
2023-02-27T09:22:38.088Z,5.31
2023-02-27T09:25:06.071Z,5.23
2023-02-27T09:27:34.250Z,5.15
2023-02-27T09:30:01.051Z,5.09
2023-02-27T09:32:28.066Z,5.41
2023-02-27T09:34:55.047Z,7.22
2023-02-27T09:37:24.359Z,8.13
2023-02-27T09:39:51.046Z,7.44
2023-02-27T09:42:21.622Z,6.85
2023-02-27T09:45:09.540Z,6.46
2023-02-27T09:47:50.063Z,6.18
2023-02-27T09:50:48.633Z,6.01
2023-02-27T09:53:26.337Z,5.86
2023-02-27T09:56:02.398Z,5.76
2023-02-27T09:58:31.518Z,5.68
2023-02-27T10:01:34.765Z,5.64
2023-02-27T10:04:24.013Z,5.62
2023-02-27T10:06:55.647Z,5.63
2023-02-27T10:09:24.994Z,5.67
2023-02-27T10:12:13.610Z,5.73
2023-02-27T10:14:49.713Z,5.82
2023-02-27T10:17:44.379Z,5.96
2023-02-27T10:20:37.185Z,6.10
2023-02-27T10:23:18.464Z,6.22
2023-02-27T10:25:50.204Z,6.31
2023-02-27T10:28:19.965Z,6.36
2023-02-27T10:30:50.711Z,6.38
2023-02-27T10:33:39.666Z,6.34
2023-02-27T10:36:23.625Z,6.25
2023-02-27T10:39:05.574Z,6.14
2023-02-27T10:41:32.536Z,6.04
2023-02-27T10:44:00.415Z,5.91
2023-02-27T10:46:31.042Z,5.80
2023-02-27T10:48:59.532Z,5.69
2023-02-27T10:51:36.321Z,5.59
2023-02-27T10:54:18.081Z,5.51
2023-02-27T10:56:49.864Z,5.47
2023-02-27T10:59:28.887Z,5.45
2023-02-27T11:01:59.293Z,5.43
2023-02-27T11:04:39.506Z,5.46
2023-02-27T11:07:10.722Z,5.55
2023-02-27T11:09:37.639Z,5.70
2023-02-27T11:12:27.817Z,5.87
2023-02-27T11:15:02.437Z,6.11
2023-02-27T11:17:32.306Z,6.27
2023-02-27T11:20:01.850Z,6.30
2023-02-27T11:22:30.693Z,6.27
2023-02-27T11:25:22.067Z,6.18
2023-02-27T11:27:51.379Z,6.06
2023-02-27T11:30:27.469Z,5.94
2023-02-27T11:32:59.228Z,5.80
2023-02-27T11:35:34.675Z,5.70
2023-02-27T11:38:18.982Z,5.57
2023-02-27T11:40:59.254Z,5.46
2023-02-27T11:43:31.403Z,5.37
2023-02-27T11:46:19.766Z,5.27
2023-02-27T11:49:18.141Z,5.18
2023-02-27T11:52:11.739Z,5.12
2023-02-27T11:54:45.205Z,5.09
2023-02-27T11:57:31.935Z,5.08
2023-02-27T12:00:19.159Z,5.07
2023-02-27T12:03:12.899Z,5.05
2023-02-27T12:05:49.005Z,5.04
2023-02-27T12:08:30.685Z,5.05
2023-02-27T12:11:14.913Z,5.05
2023-02-27T12:13:46.526Z,5.07
2023-02-27T12:16:22.137Z,5.05
2023-02-27T12:19:12.396Z,5.00
2023-02-27T12:21:48.386Z,4.93
2023-02-27T12:24:52.580Z,4.84
2023-02-27T12:27:24.730Z,4.74
2023-02-27T12:29:58.607Z,4.67
2023-02-27T12:32:50.214Z,4.60
2023-02-27T12:35:21.813Z,4.53
2023-02-27T12:37:48.386Z,4.46
2023-02-27T12:40:29.072Z,4.41
2023-02-27T12:43:01.905Z,4.36
2023-02-27T12:45:43.526Z,4.33
2023-02-27T12:48:22.545Z,4.30
2023-02-27T12:51:11.751Z,4.26
2023-02-27T12:53:56.712Z,4.24
2023-02-27T12:56:29.849Z,4.23
2023-02-27T12:59:56.266Z,4.22
2023-02-27T13:02:54.055Z,4.24
2023-02-27T13:05:37.151Z,4.26
2023-02-27T13:08:42.711Z,4.28
2023-02-27T13:11:33.701Z,4.32
2023-02-27T13:14:28.681Z,4.33
2023-02-27T13:17:39.982Z,4.35
2023-02-27T13:20:21.480Z,4.37
2023-02-27T13:22:57.600Z,4.36
2023-02-27T13:25:25.004Z,4.36
2023-02-27T13:27:59.611Z,4.33
2023-02-27T13:30:44.594Z,4.32
2023-02-27T13:33:34.731Z,4.30
2023-02-27T13:36:43.594Z,4.29
2023-02-27T13:39:46.258Z,4.27
2023-02-27T13:42:29.484Z,4.25
2023-02-27T13:45:05.621Z,4.25
2023-02-27T13:47:40.177Z,4.25
2023-02-27T13:50:20.599Z,4.24
2023-02-27T13:52:47.531Z,4.23
2023-02-27T13:55:28.756Z,4.21
2023-02-27T13:58:00.306Z,4.20
2023-02-27T14:00:32.901Z,4.19
2023-02-27T14:03:18.667Z,4.17
2023-02-27T14:05:47.949Z,4.16
2023-02-27T14:08:25.132Z,4.14
2023-02-27T14:11:21.347Z,4.13
2023-02-27T14:13:51.486Z,4.12
2023-02-27T14:16:36.745Z,4.11
2023-02-27T14:19:21.975Z,4.11
2023-02-27T14:22:00.410Z,4.08
2023-02-27T14:24:44.820Z,4.07
2023-02-27T14:27:23.786Z,4.06
2023-02-27T14:29:53.808Z,4.05
2023-02-27T14:32:29.431Z,4.03
2023-02-27T14:34:56.541Z,4.03
2023-02-27T14:37:25.803Z,4.02
2023-02-27T14:39:54.815Z,3.99
2023-02-27T14:43:09.119Z,3.96
2023-02-27T14:45:35.705Z,3.94
2023-02-27T14:48:02.268Z,3.92
2023-02-27T14:50:36.655Z,3.89
2023-02-27T14:53:05.145Z,3.88
2023-02-27T14:55:34.839Z,3.86
2023-02-27T14:58:07.034Z,3.84
2023-02-27T15:00:37.142Z,3.82
2023-02-27T15:03:41.223Z,3.82
2023-02-27T15:06:19.965Z,3.80
2023-02-27T15:08:52.713Z,3.80
2023-02-27T15:11:22.008Z,3.79
2023-02-27T15:13:57.604Z,3.79
2023-02-27T15:16:26.891Z,3.78
2023-02-27T15:19:00.379Z,3.77
2023-02-27T15:21:31.449Z,3.77
2023-02-27T15:23:58.713Z,3.76
2023-02-27T15:26:29.406Z,3.74
2023-02-27T15:28:59.050Z,3.74
2023-02-27T15:31:29.386Z,3.72
2023-02-27T15:33:57.490Z,3.71
2023-02-27T15:36:28.130Z,3.70
2023-02-27T15:39:17.553Z,3.69
2023-02-27T15:41:56.441Z,3.68
2023-02-27T15:44:35.550Z,3.66
2023-02-27T15:47:02.709Z,3.65
2023-02-27T15:49:29.498Z,3.63
2023-02-27T15:52:22.720Z,3.62
2023-02-27T15:54:58.595Z,3.60
2023-02-27T15:57:25.167Z,3.60
2023-02-27T15:59:52.339Z,3.58
2023-02-27T16:02:24.902Z,3.57
2023-02-27T16:04:51.658Z,3.55
2023-02-27T16:07:24.159Z,3.54
2023-02-27T16:10:03.656Z,3.52
2023-02-27T16:12:37.807Z,3.51
2023-02-27T16:15:38.338Z,3.50
2023-02-27T16:18:30.702Z,3.49
2023-02-27T16:21:15.293Z,3.47
2023-02-27T16:23:43.476Z,3.45
2023-02-27T16:26:38.306Z,3.43
2023-02-27T16:29:36.226Z,3.42
2023-02-27T16:32:03.551Z,3.40
2023-02-27T16:34:46.299Z,3.39
2023-02-27T16:37:31.785Z,3.38
2023-02-27T16:39:58.403Z,3.37
2023-02-27T16:42:25.050Z,3.36
2023-02-27T16:44:51.587Z,3.35
2023-02-27T16:47:18.667Z,3.34
2023-02-27T16:49:46.668Z,3.32
2023-02-27T16:52:13.243Z,3.31
2023-02-27T16:54:39.896Z,3.30
2023-02-27T16:57:06.504Z,3.28
2023-02-27T16:59:39.621Z,3.28
2023-02-27T17:02:14.741Z,3.26
2023-02-27T17:04:47.242Z,3.25
2023-02-27T17:07:16.954Z,3.24
2023-02-27T17:09:45.263Z,3.21
2023-02-27T17:12:13.174Z,3.20
2023-02-27T17:14:39.710Z,3.18
2023-02-27T17:17:06.688Z,3.17
2023-02-27T17:19:33.639Z,3.14
2023-02-27T17:22:00.154Z,3.13
2023-02-27T17:24:26.702Z,3.10
2023-02-27T17:26:53.350Z,3.08
2023-02-27T17:29:20.683Z,3.07
2023-02-27T17:31:47.357Z,3.05
2023-02-27T17:34:14.762Z,3.03
2023-02-27T17:36:41.284Z,3.01
2023-02-27T17:39:11.026Z,2.99
2023-02-27T17:41:37.500Z,2.96
2023-02-27T17:44:04.149Z,2.94
2023-02-27T17:46:31.252Z,2.91
2023-02-27T17:49:01.316Z,2.88
2023-02-27T17:51:30.045Z,2.85
2023-02-27T17:53:59.885Z,2.82
2023-02-27T17:56:26.752Z,2.79
2023-02-27T17:58:53.620Z,2.76
2023-02-27T18:01:24.953Z,2.73
2023-02-27T18:03:54.139Z,2.70
2023-02-27T18:06:22.778Z,2.67
2023-02-27T18:08:49.767Z,2.63
2023-02-27T18:11:20.433Z,2.60
2023-02-27T18:13:47.937Z,2.57
2023-02-27T18:16:15.088Z,2.54
2023-02-27T18:18:43.130Z,2.51
2023-02-27T18:21:14.036Z,2.49
2023-02-27T18:23:41.401Z,2.47
2023-02-27T18:26:23.554Z,2.44
2023-02-27T18:28:59.421Z,2.41
2023-02-27T18:31:30.303Z,2.40
2023-02-27T18:33:56.944Z,2.38
2023-02-27T18:36:24.158Z,2.36
2023-02-27T18:38:50.824Z,2.35
2023-02-27T18:41:17.573Z,2.33
2023-02-27T18:43:44.465Z,2.32
2023-02-27T18:46:12.824Z,2.82
2023-02-27T18:48:40.504Z,4.82
2023-02-27T18:51:11.623Z,6.26
2023-02-27T18:53:39.518Z,5.67
2023-02-27T18:56:07.895Z,4.89
2023-02-27T18:58:35.684Z,4.39
2023-02-27T19:01:06.873Z,4.07
2023-02-27T19:03:35.316Z,3.84
2023-02-27T19:06:02.057Z,3.67
2023-02-27T19:08:28.753Z,3.53
2023-02-27T19:10:56.967Z,3.40
2023-02-27T19:13:25.075Z,3.29
2023-02-27T19:15:52.884Z,3.64
2023-02-27T19:18:19.721Z,5.56
2023-02-27T19:20:46.318Z,6.80
2023-02-27T19:23:13.037Z,6.13
2023-02-27T19:25:41.357Z,5.34
2023-02-27T19:28:10.380Z,4.81
2023-02-27T19:30:39.127Z,4.46
2023-02-27T19:33:06.196Z,4.19
2023-02-27T19:35:32.957Z,3.99
2023-02-27T19:37:59.953Z,3.80
2023-02-27T19:40:27.534Z,3.64
2023-02-27T19:42:54.315Z,3.49
2023-02-27T19:45:21.452Z,3.36
2023-02-27T19:47:48.007Z,3.24
2023-02-27T19:50:15.600Z,3.12
2023-02-27T19:52:42.421Z,3.02
2023-02-27T19:55:09.542Z,2.92
2023-02-27T19:57:36.746Z,2.83
2023-02-27T20:00:09.201Z,3.14
2023-02-27T20:02:35.916Z,5.06
2023-02-27T20:05:02.774Z,6.79
2023-02-27T20:07:29.753Z,6.86
2023-02-27T20:09:56.463Z,5.87
2023-02-27T20:12:23.795Z,5.13
2023-02-27T20:14:50.621Z,4.65
2023-02-27T20:17:17.743Z,4.32
2023-02-27T20:19:44.396Z,4.06
2023-02-27T20:22:12.925Z,3.87
2023-02-27T20:24:39.630Z,3.70
2023-02-27T20:27:06.604Z,3.55
2023-02-27T20:29:33.276Z,3.42
2023-02-27T20:31:59.991Z,3.29
2023-02-27T20:34:26.718Z,3.17
2023-02-27T20:36:54.874Z,3.43
2023-02-27T20:39:21.849Z,5.27
2023-02-27T20:41:48.918Z,6.57
2023-02-27T20:44:16.022Z,5.92
2023-02-27T20:46:43.918Z,5.13
2023-02-27T20:49:14.942Z,4.60
2023-02-27T20:51:42.136Z,4.23
2023-02-27T20:54:13.533Z,3.96
2023-02-27T20:56:41.468Z,3.75
2023-02-27T20:59:12.968Z,3.59
2023-02-27T21:01:40.516Z,3.43
2023-02-27T21:04:07.628Z,3.30
2023-02-27T21:06:34.933Z,3.36
2023-02-27T21:09:05.852Z,4.97
2023-02-27T21:11:33.423Z,6.17
2023-02-27T21:14:08.526Z,5.51
2023-02-27T21:16:36.166Z,4.80
2023-02-27T21:19:03.413Z,4.34
2023-02-27T21:21:33.421Z,4.02
2023-02-27T21:24:01.467Z,3.79
2023-02-27T21:26:38.837Z,3.60
2023-02-27T21:29:15.113Z,3.43
2023-02-27T21:31:48.351Z,3.27
2023-02-27T21:34:22.695Z,3.14
2023-02-27T21:36:50.270Z,3.02
2023-02-27T21:39:21.255Z,2.92
2023-02-27T21:41:48.781Z,2.82
2023-02-27T21:44:19.094Z,2.73
2023-02-27T21:46:45.970Z,2.65
2023-02-27T21:49:17.579Z,2.57
2023-02-27T21:51:44.564Z,2.98
2023-02-27T21:54:15.807Z,4.89
2023-02-27T21:56:44.448Z,6.21
2023-02-27T21:59:11.329Z,5.56
2023-02-27T22:01:46.635Z,4.78
2023-02-27T22:04:16.093Z,4.26
2023-02-27T22:06:43.261Z,3.93
2023-02-27T22:09:09.884Z,3.68
2023-02-27T22:11:36.789Z,3.48
2023-02-27T22:14:05.848Z,3.32
2023-02-27T22:16:33.377Z,3.17
2023-02-27T22:19:06.965Z,3.04
2023-02-27T22:21:34.753Z,2.92
2023-02-27T22:24:01.901Z,2.81
2023-02-27T22:26:28.782Z,2.70
2023-02-27T22:28:56.662Z,3.06
2023-02-27T22:31:31.684Z,4.93
2023-02-27T22:34:06.401Z,6.19
2023-02-27T22:36:34.811Z,5.43
2023-02-27T22:39:02.534Z,4.69
2023-02-27T22:41:38.919Z,4.18
2023-02-27T22:44:06.789Z,3.85
2023-02-27T22:46:37.708Z,3.60
2023-02-27T22:49:08.198Z,3.40
2023-02-27T22:51:35.101Z,3.24
2023-02-27T22:54:03.820Z,3.08
2023-02-27T22:56:31.732Z,2.95
2023-02-27T22:58:58.891Z,2.83
2023-02-27T23:01:32.201Z,2.71
2023-02-27T23:04:02.835Z,3.08
2023-02-27T23:06:38.948Z,4.99
2023-02-27T23:09:08.605Z,6.30
2023-02-27T23:11:35.215Z,5.57
2023-02-27T23:14:01.806Z,4.78
2023-02-27T23:16:28.479Z,4.27
2023-02-27T23:18:57.815Z,3.93
2023-02-27T23:21:31.660Z,3.66
2023-02-27T23:23:58.369Z,3.45
2023-02-27T23:26:27.791Z,3.27
2023-02-27T23:28:55.927Z,3.11
2023-02-27T23:31:22.583Z,2.97
2023-02-27T23:33:49.900Z,3.21
2023-02-27T23:36:17.075Z,5.00
2023-02-27T23:38:45.879Z,6.30
2023-02-27T23:41:16.077Z,5.65
2023-02-27T23:43:44.236Z,4.84
2023-02-27T23:46:14.116Z,4.31
2023-02-27T23:48:41.676Z,3.94
2023-02-27T23:51:09.842Z,3.68
2023-02-27T23:53:39.048Z,3.46
2023-02-27T23:56:24.684Z,3.27
2023-02-27T23:59:01.013Z,3.09
